Norway House Airport
CYNE : now visible

Airfield :











YOU CAN JOIN US ON...

 
LOGIN :

Register | Disclaimer

   EN    FR    IT 

 









Legend :    VFR   Marginal VFR   IFR   Intensive IFR   Very Intensive IFR
Visi :
Ceiling :
>= 8 km
>= 3000ft
5 to 8 km
1000 to 3000 ft
1500m to 5 km
500 to 1000 ft
800 to 1500m
200 to 500 ft
< 800m
< 200 ft
Symbols :   Thunderstorms  Fog  Heavy snow  Heavy precipitations  Wind > 20 kt






- Airport Elevation : 734 ft
- IATA code : YNE


CYNE - Norway House

CURRENT METAR :
  • 200400Z AUTO 29005KT 240V320 9SM CLR M03/M07 A3017 RMK SLP234

EXPIRED METARs :
  • 200300Z AUTO 30006KT 9SM CLR M03/M07 A3018 RMK SLP238
  • 200200Z AUTO 32005KT 9SM CLR M02/M07 A3018 RMK SLP239
  • 200100Z AUTO 34007KT 9SM CLR M01/M07 A3017 RMK SLP237
  • 200000Z AUTO 35009G16KT 310V020 9SM CLR M00/M07 A3017 RMK SLP234

TAF TAF CYNE
Valid from the 20 at 01:00 until the 20 at 13:00 UTC


200040Z 2001/2013 35010KT P6SM SCT250
BECMG 2004/2006 28006KT RMK FCST BASED ON AUTO OBS. DP SENSOR INOP. NXT FCST BY 200700Z
CZWG FIR / North America



MET'MAP, your aeronautical weather chart ! - Copyright ORBIFLY December 2007 - Disclaimer

ORBIFLY MET'MAP TEAM :

Programming & Development : Alexandra Zaïnal
Original concept : Baudouin d'Aumeries
Technical & hardware support : Manuel Goepfert
Assistance : Marc-Olivier Méhu




SOURCES & CREDITS :

   NOAA       Earth
Advisory